Time;durP1;ratioP1;P1;durP2;ratioP2;P2;SDS_P1;SDS_P2;PMS_P1;PMS_P2;Temp;Humidity;BMP_temperature;BMP_pressure;BME280_temperature;BME280_humidity;BME280_pressure;Samples;Min_cycle;Max_cycle;Signal;HPM_P1;HPM_P2
2023/11/22 00:01:43;;;;;;;9.15;5.18;;;;;;;;;;4976340;28;20054;-55
2023/11/22 00:04:36;;;;;;;8.85;5.68;;;;;;;;;;4977625;28;20058;-60
2023/11/22 00:07:24;;;;;;;7.57;4.70;;;;;;;;;;4977130;28;20054;-60
2023/11/22 00:10:18;;;;;;;7.28;5.00;;;;;;;;;;4978127;28;20147;-61
2023/11/22 00:13:11;;;;;;;6.65;4.75;;;;;;;;;;4977846;28;20064;-59
2023/11/22 00:16:08;;;;;;;7.20;5.07;;;;;;;;;;4976890;28;20077;-59
2023/11/22 00:18:39;;;;;;;6.75;4.88;;;;;;;;;;4979839;28;20145;-66
2023/11/22 00:21:13;;;;;;;8.82;4.78;;;;;;;;;;4978956;28;20052;-66
2023/11/22 00:23:40;;;;;;;7.85;5.45;;;;;;;;;;4976736;28;20050;-64
2023/11/22 00:26:15;;;;;;;6.97;4.72;;;;;;;;;;4979252;28;20077;-66
2023/11/22 00:28:42;;;;;;;7.20;4.88;;;;;;;;;;4973748;28;20544;-48
2023/11/22 00:31:09;;;;;;;7.15;4.63;;;;;;;;;;4980699;28;20509;-60
2023/11/22 00:33:44;;;;;;;8.10;4.25;;;;;;;;;;4979632;28;20137;-59
2023/11/22 00:36:11;;;;;;;7.00;4.30;;;;;;;;;;4981271;28;20097;-59
2023/11/22 00:38:45;;;;;;;8.32;4.78;;;;;;;;;;4979357;28;20058;-59
2023/11/22 00:41:18;;;;;;;7.93;4.50;;;;;;;;;;4978962;28;20105;-58
2023/11/22 00:43:46;;;;;;;;;;;;;;;;;;4975740;28;20141;-58
2023/11/22 00:46:19;;;;;;;6.97;4.53;;;;;;;;;;4981093;28;19930;-60
2023/11/22 00:48:47;;;;;;;7.10;4.88;;;;;;;;;;4980022;28;20535;-61
2023/11/22 00:51:14;;;;;;;6.90;4.53;;;;;;;;;;4982521;28;20054;-61
2023/11/22 00:53:47;;;;;;;7.22;5.28;;;;;;;;;;4977636;28;20104;-61
2023/11/22 00:56:15;;;;;;;;;;;;;;;;;;4976989;28;20058;-61
2023/11/22 00:58:57;;;;;;;6.78;4.95;;;;;;;;;;4978468;28;19929;-65
2023/11/22 01:01:24;;;;;;;9.50;4.90;;;;;;;;;;4978354;28;20069;-58
2023/11/22 01:03:58;;;;;;;6.97;4.78;;;;;;;;;;4981445;28;20050;-58
2023/11/22 01:06:25;;;;;;;7.60;4.88;;;;;;;;;;4979540;28;20113;-58
2023/11/22 01:08:52;;;;;;;8.13;5.20;;;;;;;;;;4979923;28;20054;-58
2023/11/22 01:11:26;;;;;;;9.50;5.03;;;;;;;;;;4980178;28;20465;-57
2023/11/22 01:13:54;;;;;;;8.20;4.25;;;;;;;;;;4977741;28;20058;-58
2023/11/22 01:16:28;;;;;;;9.52;4.38;;;;;;;;;;4979826;28;20081;-59
2023/11/22 01:18:55;;;;;;;10.15;5.05;;;;;;;;;;4979624;28;20059;-60
2023/11/22 01:21:22;;;;;;;6.63;4.80;;;;;;;;;;4977753;28;20050;-60
2023/11/22 01:23:58;;;;;;;9.10;4.70;;;;;;;;;;4974924;28;20078;-60
2023/11/22 01:26:25;;;;;;;7.35;4.80;;;;;;;;;;4977931;28;20054;-49
2023/11/22 01:28:59;;;;;;;7.93;4.47;;;;;;;;;;4976774;28;20046;-66
2023/11/22 01:31:27;;;;;;;8.45;4.82;;;;;;;;;;4974687;28;20065;-65
2023/11/22 01:33:54;;;;;;;6.05;4.20;;;;;;;;;;4973187;28;20054;-65
2023/11/22 01:36:29;;;;;;;6.15;4.38;;;;;;;;;;4976502;28;20054;-65
2023/11/22 01:38:56;;;;;;;;;;;;;;;;;;4977996;28;20062;-64
2023/11/22 01:41:30;;;;;;;9.57;4.68;;;;;;;;;;4978816;28;19926;-65
2023/11/22 01:43:57;;;;;;;;;;;;;;;;;;4975647;28;21109;-55
2023/11/22 01:46:26;;;;;;;6.13;4.38;;;;;;;;;;4980207;28;20036;-54
2023/11/22 01:49:00;;;;;;;6.82;4.10;;;;;;;;;;4975753;28;20058;-52
2023/11/22 01:51:28;;;;;;;7.22;4.10;;;;;;;;;;4971497;28;20062;-52
2023/11/22 01:54:29;;;;;;;7.95;4.88;;;;;;;;;;4978382;28;20053;-61
2023/11/22 01:57:23;;;;;;;5.43;3.75;;;;;;;;;;4979435;28;20443;-48
2023/11/22 02:00:18;;;;;;;6.80;4.40;;;;;;;;;;4980818;28;20054;-50
2023/11/22 02:03:06;;;;;;;5.32;3.78;;;;;;;;;;4979272;28;20129;-51
2023/11/22 02:06:00;;;;;;;8.15;4.20;;;;;;;;;;4976225;28;20084;-50
2023/11/22 02:08:47;;;;;;;5.15;3.60;;;;;;;;;;4978237;28;20043;-50
2023/11/22 02:11:42;;;;;;;5.82;3.88;;;;;;;;;;4979400;28;21621;-49
2023/11/22 02:14:28;;;;;;;5.75;4.10;;;;;;;;;;4977126;28;20062;-60
2023/11/22 02:17:22;;;;;;;6.75;3.83;;;;;;;;;;4977445;28;20108;-58
2023/11/22 02:20:10;;;;;;;6.72;3.95;;;;;;;;;;4974635;28;20073;-57
2023/11/22 02:23:11;;;;;;;8.00;3.97;;;;;;;;;;4976657;28;20089;-58
2023/11/22 02:26:05;;;;;;;6.32;4.18;;;;;;;;;;4978944;28;20147;-58
2023/11/22 02:28:53;;;;;;;5.63;3.97;;;;;;;;;;4978294;28;21487;-58
2023/11/22 02:31:47;;;;;;;5.22;3.20;;;;;;;;;;4981751;28;20065;-62
2023/11/22 02:34:35;;;;;;;4.70;3.58;;;;;;;;;;4980908;28;20101;-61
2023/11/22 02:37:28;;;;;;;6.65;3.47;;;;;;;;;;4979512;28;20424;-61
2023/11/22 02:40:20;;;;;;;5.13;3.70;;;;;;;;;;4984206;28;20879;-62
2023/11/22 02:43:13;;;;;;;5.78;3.78;;;;;;;;;;4979931;28;20059;-61
2023/11/22 02:46:01;;;;;;;5.57;3.42;;;;;;;;;;4980889;28;20062;-50
2023/11/22 02:48:54;;;;;;;7.05;3.67;;;;;;;;;;4982065;28;20065;-53
2023/11/22 02:51:42;;;;;;;7.30;4.22;;;;;;;;;;4981978;28;20108;-49
2023/11/22 02:54:42;;;;;;;5.25;3.65;;;;;;;;;;4977803;28;20430;-47
2023/11/22 02:57:30;;;;;;;7.90;3.90;;;;;;;;;;4983770;28;20042;-45
2023/11/22 03:00:25;;;;;;;4.93;3.72;;;;;;;;;;4984213;28;20050;-56
2023/11/22 03:03:12;;;;;;;5.60;3.55;;;;;;;;;;4979167;28;20141;-57
2023/11/22 03:06:04;;;;;;;7.43;3.78;;;;;;;;;;4981441;28;20058;-59
2023/11/22 03:08:52;;;;;;;5.85;3.30;;;;;;;;;;4982230;28;20110;-60
2023/11/22 03:11:45;;;;;;;5.25;3.50;;;;;;;;;;4981123;28;20152;-58
2023/11/22 03:14:33;;;;;;;5.40;3.67;;;;;;;;;;4980176;28;20062;-58
2023/11/22 03:17:28;;;;;;;5.00;3.58;;;;;;;;;;4979308;28;20073;-58
2023/11/22 03:20:16;;;;;;;5.53;3.80;;;;;;;;;;4982746;28;20061;-58
2023/11/22 03:23:10;;;;;;;6.25;3.75;;;;;;;;;;4981533;28;20050;-57
2023/11/22 03:25:56;;;;;;;4.95;3.40;;;;;;;;;;4975702;28;20357;-58
2023/11/22 03:28:49;;;;;;;8.13;3.75;;;;;;;;;;4979158;28;20054;-60
2023/11/22 03:31:37;;;;;;;5.03;3.60;;;;;;;;;;4980704;28;20429;-59
2023/11/22 03:34:31;;;;;;;4.65;3.50;;;;;;;;;;4981596;28;20062;-59
2023/11/22 03:37:18;;;;;;;5.22;3.60;;;;;;;;;;4980853;28;20054;-60
2023/11/22 03:40:13;;;;;;;6.47;4.05;;;;;;;;;;4979365;28;20248;-54
2023/11/22 03:42:59;;;;;;;5.28;3.83;;;;;;;;;;4983179;28;20113;-58
2023/11/22 03:45:52;;;;;;;6.57;3.83;;;;;;;;;;4976544;28;20528;-59
2023/11/22 03:48:40;;;;;;;6.40;3.42;;;;;;;;;;4977483;28;20545;-59
2023/11/22 03:51:34;;;;;;;5.50;3.80;;;;;;;;;;4982028;28;20398;-58
2023/11/22 03:54:21;;;;;;;6.57;4.33;;;;;;;;;;4978948;28;20063;-59
2023/11/22 03:57:22;;;;;;;6.93;3.63;;;;;;;;;;4939569;28;20047;-59
2023/11/22 04:00:10;;;;;;;7.65;4.47;;;;;;;;;;4942024;28;20051;-58
2023/11/22 04:03:03;;;;;;;6.22;4.00;;;;;;;;;;4939305;28;20532;-58
2023/11/22 04:05:51;;;;;;;6.32;4.32;;;;;;;;;;4938240;28;20578;-55
2023/11/22 04:08:44;;;;;;;6.85;4.55;;;;;;;;;;4940294;28;20062;-51
2023/11/22 04:11:32;;;;;;;5.65;4.13;;;;;;;;;;4936204;28;20470;-59
2023/11/22 04:14:27;;;;;;;7.15;4.20;;;;;;;;;;4935747;28;20478;-59
2023/11/22 04:17:13;;;;;;;6.80;4.13;;;;;;;;;;4940545;28;20477;-58
2023/11/22 04:20:09;;;;;;;6.35;4.25;;;;;;;;;;4936540;28;20295;-59
2023/11/22 04:22:55;;;;;;;5.57;3.60;;;;;;;;;;4941348;28;20082;-59
2023/11/22 04:25:49;;;;;;;7.03;4.50;;;;;;;;;;4940700;28;20499;-57
2023/11/22 04:28:36;;;;;;;7.90;3.90;;;;;;;;;;4941301;28;20058;-58
2023/11/22 04:31:30;;;;;;;5.78;4.13;;;;;;;;;;4945193;28;20114;-57
2023/11/22 04:34:17;;;;;;;7.60;4.75;;;;;;;;;;4937116;28;20598;-58
2023/11/22 04:37:10;;;;;;;7.25;4.30;;;;;;;;;;4936774;28;20054;-58
2023/11/22 04:39:58;;;;;;;8.23;4.95;;;;;;;;;;4942184;28;20075;-59
2023/11/22 04:42:51;;;;;;;7.25;4.47;;;;;;;;;;4939331;28;20055;-59
2023/11/22 04:45:39;;;;;;;8.82;4.57;;;;;;;;;;4941805;28;20062;-59
2023/11/22 04:48:32;;;;;;;6.72;4.68;;;;;;;;;;4938713;28;20059;-59
2023/11/22 04:51:29;;;;;;;8.05;4.82;;;;;;;;;;4940807;28;20059;-59
2023/11/22 04:54:20;;;;;;;6.47;4.28;;;;;;;;;;4940071;28;20075;-65
2023/11/22 04:57:15;;;;;;;7.50;4.43;;;;;;;;;;4952814;28;20074;-66
2023/11/22 05:00:09;;;;;;;7.78;4.30;;;;;;;;;;4959013;28;20109;-67
2023/11/22 05:02:57;;;;;;;11.95;4.75;;;;;;;;;;4955692;28;20121;-65
2023/11/22 05:05:50;;;;;;;10.98;4.68;;;;;;;;;;4961472;28;20063;-65
2023/11/22 05:08:38;;;;;;;8.35;4.63;;;;;;;;;;4961898;28;20129;-64
2023/11/22 05:11:31;;;;;;;7.20;4.45;;;;;;;;;;4961702;28;20062;-65
2023/11/22 05:14:19;;;;;;;6.97;4.47;;;;;;;;;;4960912;28;20117;-64
2023/11/22 05:17:12;;;;;;;7.45;4.88;;;;;;;;;;4959260;28;20128;-65
2023/11/22 05:20:00;;;;;;;11.05;5.25;;;;;;;;;;4957244;28;20051;-63
2023/11/22 05:22:53;;;;;;;7.97;4.90;;;;;;;;;;4958069;28;20078;-60
2023/11/22 05:25:41;;;;;;;10.75;4.90;;;;;;;;;;4955029;28;20065;-60
2023/11/22 05:28:34;;;;;;;8.95;5.55;;;;;;;;;;4955022;28;20102;-60
2023/11/22 05:31:23;;;;;;;9.98;6.05;;;;;;;;;;4958753;28;20090;-57
2023/11/22 05:34:15;;;;;;;10.90;5.40;;;;;;;;;;4957502;28;20051;-59
2023/11/22 05:37:05;;;;;;;11.15;5.75;;;;;;;;;;4958861;28;20051;-58
2023/11/22 05:39:56;;;;;;;10.60;6.32;;;;;;;;;;4959613;28;20133;-57
2023/11/22 05:42:44;;;;;;;13.38;6.35;;;;;;;;;;4957144;28;20055;-57
2023/11/22 05:45:39;;;;;;;11.95;6.75;;;;;;;;;;4950872;28;20077;-58
2023/11/22 05:48:26;;;;;;;11.48;5.68;;;;;;;;;;4956304;28;20051;-58
2023/11/22 05:51:21;;;;;;;14.13;6.75;;;;;;;;;;4959124;28;20081;-55
2023/11/22 05:54:08;;;;;;;13.50;6.30;;;;;;;;;;4954958;28;20098;-55
2023/11/22 05:57:09;;;;;;;9.95;5.80;;;;;;;;;;4977507;28;20062;-54
2023/11/22 05:59:55;;;;;;;11.90;7.00;;;;;;;;;;4974456;28;20082;-49
2023/11/22 06:02:49;;;;;;;10.50;5.90;;;;;;;;;;4973934;28;20108;-56
2023/11/22 06:05:37;;;;;;;10.82;6.13;;;;;;;;;;4979987;28;20059;-58
2023/11/22 06:08:31;;;;;;;10.50;5.57;;;;;;;;;;4981506;28;20064;-57
2023/11/22 06:11:19;;;;;;;11.23;5.85;;;;;;;;;;4982159;28;20235;-57
2023/11/22 06:14:11;;;;;;;12.23;6.25;;;;;;;;;;4978960;28;20555;-58
2023/11/22 06:17:06;;;;;;;10.73;6.72;;;;;;;;;;4982446;28;20050;-58
2023/11/22 06:19:59;;;;;;;14.43;6.50;;;;;;;;;;4980527;28;20054;-53
2023/11/22 06:22:54;;;;;;;11.93;6.50;;;;;;;;;;4984252;28;20133;-54
2023/11/22 06:25:41;;;;;;;13.18;6.45;;;;;;;;;;4980688;28;20054;-49
2023/11/22 06:28:35;;;;;;;12.85;6.43;;;;;;;;;;4979430;28;20153;-55
2023/11/22 06:31:22;;;;;;;11.45;6.10;;;;;;;;;;4979665;28;20067;-54
2023/11/22 06:34:16;;;;;;;12.48;5.93;;;;;;;;;;4978664;28;20081;-54
2023/11/22 06:37:08;;;;;;;9.75;5.78;;;;;;;;;;4978559;28;20046;-54
2023/11/22 06:40:00;;;;;;;11.07;6.40;;;;;;;;;;4984574;28;20161;-58
2023/11/22 06:42:47;;;;;;;10.82;6.10;;;;;;;;;;4981824;28;20136;-59
2023/11/22 06:45:41;;;;;;;12.27;5.95;;;;;;;;;;4977346;28;20058;-58
2023/11/22 06:48:28;;;;;;;12.30;6.25;;;;;;;;;;4973273;28;20904;-58
2023/11/22 06:51:22;;;;;;;11.10;6.40;;;;;;;;;;4978492;28;20054;-58
2023/11/22 06:54:10;;;;;;;11.23;6.40;;;;;;;;;;4981505;28;20053;-59
2023/11/22 06:57:09;;;;;;;12.75;6.13;;;;;;;;;;4979939;28;20779;-58
2023/11/22 06:59:57;;;;;;;10.90;6.20;;;;;;;;;;4981759;28;20505;-57
2023/11/22 07:02:51;;;;;;;11.90;6.10;;;;;;;;;;4978145;28;20062;-58
2023/11/22 07:05:38;;;;;;;11.68;6.28;;;;;;;;;;4982385;28;20124;-58
2023/11/22 07:08:32;;;;;;;10.00;6.32;;;;;;;;;;4980206;28;20058;-58
2023/11/22 07:11:23;;;;;;;10.35;5.65;;;;;;;;;;4981787;28;20082;-58
2023/11/22 07:14:17;;;;;;;10.20;5.85;;;;;;;;;;4979866;28;20528;-66
2023/11/22 07:17:06;;;;;;;14.35;5.70;;;;;;;;;;4984487;28;20060;-66
2023/11/22 07:20:00;;;;;;;10.57;6.35;;;;;;;;;;4983745;28;21799;-65
2023/11/22 07:22:55;;;;;;;10.73;5.97;;;;;;;;;;4982472;28;20129;-66
2023/11/22 07:25:47;;;;;;;13.32;7.22;;;;;;;;;;4980777;28;20062;-48
2023/11/22 07:28:41;;;;;;;10.27;5.90;;;;;;;;;;4982378;28;20062;-60
2023/11/22 07:31:35;;;;;;;12.10;6.80;;;;;;;;;;4982733;28;20053;-58
2023/11/22 07:34:23;;;;;;;12.23;5.97;;;;;;;;;;4983661;28;20080;-58
2023/11/22 07:37:17;;;;;;;11.88;5.72;;;;;;;;;;4981167;28;20112;-59
2023/11/22 07:40:03;;;;;;;8.70;5.25;;;;;;;;;;4981070;28;20050;-58
2023/11/22 07:42:57;;;;;;;10.82;6.28;;;;;;;;;;4981755;28;20062;-48
2023/11/22 07:45:44;;;;;;;9.30;5.53;;;;;;;;;;4979757;28;20155;-47
2023/11/22 07:48:37;;;;;;;12.02;6.18;;;;;;;;;;4979220;28;20050;-48
2023/11/22 07:51:25;;;;;;;14.05;5.90;;;;;;;;;;4981871;28;20140;-49
2023/11/22 07:54:22;;;;;;;12.40;6.32;;;;;;;;;;4979568;28;21925;-57
2023/11/22 07:57:15;;;;;;;11.10;5.85;;;;;;;;;;4978379;28;20058;-59
2023/11/22 08:00:11;;;;;;;10.98;5.35;;;;;;;;;;4979596;28;20673;-61
2023/11/22 08:02:57;;;;;;;11.00;5.88;;;;;;;;;;4978276;28;21051;-58
2023/11/22 08:05:55;;;;;;;10.05;6.40;;;;;;;;;;4979483;28;20137;-60
2023/11/22 08:08:41;;;;;;;13.90;6.18;;;;;;;;;;4981196;28;20556;-59
2023/11/22 08:11:35;;;;;;;11.30;5.65;;;;;;;;;;4978791;28;20062;-49
2023/11/22 08:14:22;;;;;;;11.25;6.05;;;;;;;;;;4980988;28;20106;-51
2023/11/22 08:17:16;;;;;;;14.70;6.10;;;;;;;;;;4981216;28;20050;-48
2023/11/22 08:20:05;;;;;;;15.30;6.28;;;;;;;;;;4979663;28;20054;-47
2023/11/22 08:22:57;;;;;;;11.75;5.88;;;;;;;;;;4979702;28;20054;-60
2023/11/22 08:25:51;;;;;;;11.02;5.60;;;;;;;;;;4979827;28;20430;-59
2023/11/22 08:28:45;;;;;;;11.10;5.82;;;;;;;;;;4979273;28;20144;-58
2023/11/22 08:31:32;;;;;;;11.85;5.53;;;;;;;;;;4979344;28;20046;-59
2023/11/22 08:34:25;;;;;;;8.70;5.25;;;;;;;;;;4981194;28;20062;-58
2023/11/22 08:37:13;;;;;;;9.75;5.60;;;;;;;;;;4976867;28;20062;-57
2023/11/22 08:40:07;;;;;;;10.02;5.22;;;;;;;;;;4978750;28;20101;-65
2023/11/22 08:43:00;;;;;;;8.35;4.88;;;;;;;;;;4978910;28;20054;-64
2023/11/22 08:45:55;;;;;;;8.18;4.40;;;;;;;;;;4976923;28;20058;-65
2023/11/22 08:48:48;;;;;;;8.27;4.70;;;;;;;;;;4980120;28;20089;-58
2023/11/22 08:51:43;;;;;;;10.98;4.65;;;;;;;;;;4977656;28;20501;-62
2023/11/22 08:54:30;;;;;;;8.48;4.78;;;;;;;;;;4977804;28;20058;-58
2023/11/22 08:57:30;;;;;;;10.50;4.88;;;;;;;;;;4979005;28;20514;-58
2023/11/22 09:00:27;;;;;;;10.18;4.80;;;;;;;;;;4977913;28;20062;-59
2023/11/22 09:03:19;;;;;;;8.07;4.28;;;;;;;;;;4979400;28;20050;-58
2023/11/22 09:06:13;;;;;;;12.77;4.63;;;;;;;;;;4978780;28;20525;-58
2023/11/22 09:09:07;;;;;;;8.52;4.07;;;;;;;;;;4981480;28;20054;-60
2023/11/22 09:12:01;;;;;;;8.05;3.95;;;;;;;;;;4978808;28;20454;-60
2023/11/22 09:14:48;;;;;;;8.18;4.40;;;;;;;;;;4981963;28;20050;-60
2023/11/22 09:17:46;;;;;;;9.43;3.90;;;;;;;;;;4980150;28;20050;-65
2023/11/22 09:20:32;;;;;;;7.57;4.22;;;;;;;;;;4978081;28;20469;-58
2023/11/22 09:23:27;;;;;;;8.30;3.25;;;;;;;;;;4983285;28;20516;-58
2023/11/22 09:26:14;;;;;;;7.40;3.22;;;;;;;;;;4980055;28;20053;-57
2023/11/22 09:29:14;;;;;;;9.68;3.38;;;;;;;;;;4977993;28;20054;-57
2023/11/22 09:32:01;;;;;;;10.65;3.63;;;;;;;;;;4980510;28;20050;-56
2023/11/22 09:34:57;;;;;;;12.25;3.55;;;;;;;;;;4981976;28;20051;-58
2023/11/22 09:37:42;;;;;;;8.70;3.58;;;;;;;;;;4982586;28;20061;-57
2023/11/22 09:40:36;;;;;;;12.30;3.65;;;;;;;;;;4985250;28;20134;-58
2023/11/22 09:43:25;;;;;;;12.05;3.50;;;;;;;;;;4982423;28;20061;-58
2023/11/22 09:46:20;;;;;;;8.35;3.75;;;;;;;;;;4982908;28;20052;-60
2023/11/22 09:49:07;;;;;;;8.43;3.45;;;;;;;;;;4983434;28;20054;-48
2023/11/22 09:52:04;;;;;;;7.70;3.30;;;;;;;;;;4979654;28;20055;-50
2023/11/22 09:54:55;;;;;;;9.65;3.67;;;;;;;;;;4984944;28;20085;-50
2023/11/22 09:57:56;;;;;;;9.80;3.70;;;;;;;;;;4983321;28;20061;-50
2023/11/22 10:00:44;;;;;;;10.90;3.58;;;;;;;;;;4982285;28;20100;-49
2023/11/22 10:03:38;;;;;;;14.55;3.33;;;;;;;;;;4980162;28;20090;-48
2023/11/22 10:06:35;;;;;;;9.18;3.47;;;;;;;;;;4979839;28;20077;-57
2023/11/22 10:09:29;;;;;;;8.63;3.30;;;;;;;;;;4982050;28;20410;-58
2023/11/22 10:12:20;;;;;;;9.88;4.20;;;;;;;;;;4981361;28;20046;-57
2023/11/22 10:15:18;;;;;;;7.68;2.83;;;;;;;;;;4983096;28;20109;-54
2023/11/22 10:18:04;;;;;;;10.20;3.70;;;;;;;;;;4981787;28;20112;-59
2023/11/22 10:21:03;;;;;;;9.73;3.42;;;;;;;;;;4981477;28;20062;-58
2023/11/22 10:23:45;;;;;;;9.07;3.70;;;;;;;;;;4981902;28;20058;-59
2023/11/22 10:26:40;;;;;;;11.35;3.20;;;;;;;;;;4983211;28;20054;-60
2023/11/22 10:29:26;;;;;;;12.02;3.97;;;;;;;;;;4984256;28;20050;-59
2023/11/22 10:32:26;;;;;;;12.32;3.90;;;;;;;;;;4983126;28;20058;-59
2023/11/22 10:35:14;;;;;;;12.77;3.50;;;;;;;;;;4981900;28;20149;-61
2023/11/22 10:38:08;;;;;;;11.50;4.03;;;;;;;;;;4982015;28;20461;-60
2023/11/22 10:41:07;;;;;;;10.38;4.00;;;;;;;;;;4984527;28;20678;-60
2023/11/22 10:44:01;;;;;;;8.60;3.30;;;;;;;;;;4980682;28;20046;-60
2023/11/22 10:46:50;;;;;;;9.65;3.70;;;;;;;;;;4982804;28;20430;-48
2023/11/22 10:49:43;;;;;;;9.60;4.07;;;;;;;;;;4980499;28;20046;-49
2023/11/22 10:52:30;;;;;;;15.52;4.32;;;;;;;;;;4981479;28;20058;-48
2023/11/22 10:55:27;;;;;;;11.45;4.15;;;;;;;;;;4981368;28;20081;-52
2023/11/22 10:58:28;;;;;;;14.38;4.15;;;;;;;;;;4980620;28;20061;-53
2023/11/22 11:01:23;;;;;;;10.88;4.25;;;;;;;;;;4978465;28;20109;-59
2023/11/22 11:04:13;;;;;;;7.82;3.50;;;;;;;;;;4981438;28;20145;-59
2023/11/22 11:07:07;;;;;;;15.80;4.60;;;;;;;;;;4982462;28;20050;-59
2023/11/22 11:09:57;;;;;;;14.55;5.53;;;;;;;;;;4975712;28;20059;-59
2023/11/22 11:12:53;;;;;;;12.27;3.88;;;;;;;;;;4980755;28;20501;-66
2023/11/22 11:15:39;;;;;;;17.58;5.03;;;;;;;;;;4982430;28;20510;-67
2023/11/22 11:18:33;;;;;;;18.83;5.05;;;;;;;;;;4980705;28;20054;-66
2023/11/22 11:21:20;;;;;;;21.85;5.35;;;;;;;;;;4980868;28;20105;-66
2023/11/22 11:24:14;;;;;;;19.63;4.63;;;;;;;;;;4981732;28;20054;-65
2023/11/22 11:27:03;;;;;;;17.20;5.78;;;;;;;;;;4982260;28;20069;-65
2023/11/22 11:29:57;;;;;;;29.80;6.15;;;;;;;;;;4983339;28;20497;-60
2023/11/22 11:32:46;;;;;;;19.67;6.20;;;;;;;;;;4981511;28;20046;-59
2023/11/22 11:35:42;;;;;;;28.27;4.75;;;;;;;;;;4984427;28;20222;-60
2023/11/22 11:38:33;;;;;;;12.93;5.40;;;;;;;;;;4980926;28;20204;-60
2023/11/22 11:41:32;;;;;;;16.77;5.57;;;;;;;;;;4982608;28;20117;-60
2023/11/22 11:44:19;;;;;;;19.92;5.50;;;;;;;;;;4984826;28;20690;-60
2023/11/22 11:47:12;;;;;;;19.95;5.75;;;;;;;;;;4980882;28;20060;-60
2023/11/22 11:49:59;;;;;;;20.40;6.72;;;;;;;;;;4979560;28;20069;-60
2023/11/22 11:52:52;;;;;;;23.10;5.75;;;;;;;;;;4981204;28;20055;-60
2023/11/22 11:55:53;;;;;;;22.83;5.68;;;;;;;;;;4980077;28;20058;-60
2023/11/22 11:58:49;;;;;;;21.80;6.18;;;;;;;;;;4978953;28;20428;-54
2023/11/22 12:01:42;;;;;;;21.77;6.30;;;;;;;;;;4980847;28;20046;-48
2023/11/22 12:04:31;;;;;;;20.83;5.93;;;;;;;;;;4981824;28;20061;-51
2023/11/22 12:07:25;;;;;;;22.50;5.72;;;;;;;;;;4979692;28;20073;-52
2023/11/22 12:10:12;;;;;;;16.73;6.13;;;;;;;;;;4979910;28;20109;-54
2023/11/22 12:13:07;;;;;;;19.90;4.78;;;;;;;;;;4980354;28;20050;-60
2023/11/22 12:15:56;;;;;;;26.15;5.75;;;;;;;;;;4977750;28;20082;-60
2023/11/22 12:18:51;;;;;;;22.90;5.82;;;;;;;;;;4977380;28;20046;-60
2023/11/22 12:21:37;;;;;;;24.30;5.28;;;;;;;;;;4981865;28;20104;-60
2023/11/22 12:24:31;;;;;;;23.17;6.45;;;;;;;;;;4979633;28;20117;-60
2023/11/22 12:27:18;;;;;;;16.92;4.57;;;;;;;;;;4977597;28;20058;-52
2023/11/22 12:30:32;;;;;;;19.48;5.38;;;;;;;;;;4981603;28;20109;-54
2023/11/22 12:33:19;;;;;;;12.02;4.22;;;;;;;;;;4978915;28;20188;-48
2023/11/22 12:36:16;;;;;;;15.27;4.40;;;;;;;;;;4981131;28;20501;-51
2023/11/22 12:39:00;;;;;;;12.98;4.13;;;;;;;;;;4978444;28;20113;-51
2023/11/22 12:41:54;;;;;;;21.25;5.35;;;;;;;;;;4983280;28;20138;-60
2023/11/22 12:44:54;;;;;;;18.20;4.78;;;;;;;;;;4977781;28;20062;-60
2023/11/22 12:47:48;;;;;;;18.98;4.95;;;;;;;;;;4979156;28;20061;-61
2023/11/22 12:50:39;;;;;;;18.38;4.63;;;;;;;;;;4979289;28;20066;-60
2023/11/22 12:53:33;;;;;;;15.32;4.28;;;;;;;;;;4981641;28;20052;-60
2023/11/22 12:56:28;;;;;;;21.23;4.57;;;;;;;;;;4977474;28;20129;-60
2023/11/22 12:59:27;;;;;;;20.73;5.40;;;;;;;;;;4978657;28;20577;-60
2023/11/22 13:02:16;;;;;;;17.33;4.05;;;;;;;;;;4980559;28;20141;-60
2023/11/22 13:05:26;;;;;;;16.40;4.60;;;;;;;;;;4981200;28;20054;-60
2023/11/22 13:08:21;;;;;;;14.05;3.88;;;;;;;;;;4979331;28;20129;-66
2023/11/22 13:11:07;;;;;;;20.83;3.97;;;;;;;;;;4979050;28;20046;-66
2023/11/22 13:14:02;;;;;;;13.50;3.38;;;;;;;;;;4978170;28;20050;-66
2023/11/22 13:16:49;;;;;;;18.27;3.97;;;;;;;;;;4979224;28;20054;-66
2023/11/22 13:19:43;;;;;;;13.85;4.07;;;;;;;;;;4977790;28;20050;-67
2023/11/22 13:22:30;;;;;;;13.70;3.78;;;;;;;;;;4978984;28;20513;-67
2023/11/22 13:25:23;;;;;;;22.55;4.85;;;;;;;;;;4978217;28;20157;-66
2023/11/22 13:28:11;;;;;;;16.27;3.80;;;;;;;;;;4977621;28;20120;-66
2023/11/22 13:31:05;;;;;;;14.20;4.40;;;;;;;;;;4978859;28;20050;-66
2023/11/22 13:33:52;;;;;;;18.27;4.15;;;;;;;;;;4977264;28;20059;-53
2023/11/22 13:36:45;;;;;;;12.80;4.22;;;;;;;;;;4977036;28;20061;-59
2023/11/22 13:39:33;;;;;;;18.90;4.32;;;;;;;;;;4983330;28;20545;-60
2023/11/22 13:42:26;;;;;;;16.05;4.47;;;;;;;;;;4979634;28;20090;-60
2023/11/22 13:45:16;;;;;;;20.20;4.20;;;;;;;;;;4979286;28;20050;-59
2023/11/22 13:48:09;;;;;;;17.45;4.55;;;;;;;;;;4980140;28;20058;-59
2023/11/22 13:50:56;;;;;;;13.00;3.20;;;;;;;;;;4977787;28;20058;-60
2023/11/22 13:53:53;;;;;;;13.38;3.85;;;;;;;;;;4978265;28;20564;-60
2023/11/22 13:56:42;;;;;;;14.27;4.55;;;;;;;;;;4978432;28;20725;-60
2023/11/22 13:59:37;;;;;;;16.85;4.85;;;;;;;;;;4978411;28;20058;-60
2023/11/22 14:02:25;;;;;;;12.90;3.97;;;;;;;;;;4979975;28;20149;-51
2023/11/22 14:05:19;;;;;;;16.23;3.65;;;;;;;;;;4979217;28;20746;-60
2023/11/22 14:08:14;;;;;;;16.75;4.30;;;;;;;;;;4979727;28;20047;-60
2023/11/22 14:11:06;;;;;;;13.75;4.57;;;;;;;;;;4977655;28;20093;-60
2023/11/22 14:14:03;;;;;;;12.90;3.88;;;;;;;;;;4980852;28;20509;-61
2023/11/22 14:16:54;;;;;;;17.88;4.05;;;;;;;;;;4979237;28;20054;-60
2023/11/22 14:19:42;;;;;;;18.45;4.60;;;;;;;;;;4977895;28;20058;-60
2023/11/22 14:22:36;;;;;;;11.07;4.05;;;;;;;;;;4981152;28;20058;-59
2023/11/22 14:25:23;;;;;;;7.78;2.60;;;;;;;;;;4983386;28;20054;-60
2023/11/22 14:28:16;;;;;;;8.68;2.95;;;;;;;;;;4981138;28;20148;-60
2023/11/22 14:31:12;;;;;;;11.25;4.00;;;;;;;;;;4982549;28;20058;-58
2023/11/22 14:34:05;;;;;;;13.20;3.75;;;;;;;;;;4982437;28;20050;-54
2023/11/22 14:36:59;;;;;;;8.75;3.38;;;;;;;;;;4979356;28;20061;-53
2023/11/22 14:39:54;;;;;;;11.48;3.67;;;;;;;;;;4980631;28;20320;-56
2023/11/22 14:42:51;;;;;;;11.73;4.05;;;;;;;;;;4983925;28;20637;-55
2023/11/22 14:45:43;;;;;;;10.70;3.72;;;;;;;;;;4982447;28;20926;-55
2023/11/22 14:48:31;;;;;;;17.98;3.90;;;;;;;;;;4982548;28;20070;-54
2023/11/22 14:51:24;;;;;;;14.57;4.03;;;;;;;;;;4982665;28;20062;-60
2023/11/22 14:54:12;;;;;;;16.80;4.85;;;;;;;;;;4985774;28;20054;-59
2023/11/22 14:57:12;;;;;;;15.02;4.45;;;;;;;;;;4981881;28;20513;-59
2023/11/22 15:00:00;;;;;;;11.48;4.07;;;;;;;;;;4980978;28;20050;-66
2023/11/22 15:02:55;;;;;;;21.08;5.00;;;;;;;;;;4984036;28;20077;-60
2023/11/22 15:05:41;;;;;;;19.20;4.45;;;;;;;;;;4981249;28;20058;-58
2023/11/22 15:08:34;;;;;;;15.43;5.68;;;;;;;;;;4981856;28;20058;-59
2023/11/22 15:11:23;;;;;;;20.50;4.43;;;;;;;;;;4966913;28;20077;-59
2023/11/22 15:14:16;;;;;;;19.73;5.15;;;;;;;;;;4981143;28;20050;-59
2023/11/22 15:17:04;;;;;;;8.15;2.38;;;;;;;;;;4981486;28;20061;-58
2023/11/22 15:19:56;;;;;;;8.48;3.28;;;;;;;;;;4981499;28;20051;-52
2023/11/22 15:22:44;;;;;;;15.77;5.43;;;;;;;;;;4977082;28;20065;-51
2023/11/22 15:25:39;;;;;;;22.70;5.60;;;;;;;;;;4977631;28;20788;-54
2023/11/22 15:28:26;;;;;;;18.45;6.10;;;;;;;;;;4981974;28;20061;-54
2023/11/22 15:31:22;;;;;;;16.98;5.53;;;;;;;;;;4980183;28;20050;-65
2023/11/22 15:34:08;;;;;;;19.88;4.28;;;;;;;;;;4982087;28;20054;-67
2023/11/22 15:37:01;;;;;;;21.50;4.78;;;;;;;;;;4980230;28;20050;-67
2023/11/22 15:39:49;;;;;;;15.80;4.78;;;;;;;;;;4980779;28;20117;-68
2023/11/22 15:42:42;;;;;;;15.85;5.53;;;;;;;;;;4982801;28;20054;-67
2023/11/22 15:45:31;;;;;;;27.67;6.13;;;;;;;;;;4981545;28;20058;-67
2023/11/22 15:48:28;;;;;;;18.45;4.93;;;;;;;;;;4983748;28;20125;-61
2023/11/22 15:51:16;;;;;;;13.90;4.25;;;;;;;;;;4978766;28;20125;-61
2023/11/22 15:54:09;;;;;;;21.73;5.40;;;;;;;;;;4977890;28;20497;-60
2023/11/22 15:57:02;;;;;;;22.38;6.15;;;;;;;;;;4976196;28;20050;-51
2023/11/22 15:59:56;;;;;;;20.15;6.20;;;;;;;;;;4978443;28;20121;-66
2023/11/22 16:02:44;;;;;;;15.35;5.68;;;;;;;;;;4981933;28;20120;-67
2023/11/22 16:05:38;;;;;;;20.80;6.32;;;;;;;;;;4981303;28;20552;-68
2023/11/22 16:08:25;;;;;;;23.42;5.88;;;;;;;;;;4978101;28;20054;-67
2023/11/22 16:11:19;;;;;;;12.43;4.18;;;;;;;;;;4977135;28;20050;-67
2023/11/22 16:14:07;;;;;;;11.13;4.40;;;;;;;;;;4982581;28;20081;-60
2023/11/22 16:17:04;;;;;;;20.40;5.90;;;;;;;;;;4981113;28;20058;-60
2023/11/22 16:19:49;;;;;;;37.30;7.68;;;;;;;;;;4978255;28;20054;-61
2023/11/22 16:22:44;;;;;;;27.15;5.63;;;;;;;;;;4979101;28;20054;-60
2023/11/22 16:25:29;;;;;;;29.00;6.68;;;;;;;;;;4979241;28;20509;-67
2023/11/22 16:28:23;;;;;;;18.65;5.43;;;;;;;;;;4975778;28;20581;-61
2023/11/22 16:31:11;;;;;;;23.42;6.28;;;;;;;;;;4980597;28;20468;-60
2023/11/22 16:34:07;;;;;;;19.30;5.63;;;;;;;;;;4976598;28;20066;-60
2023/11/22 16:36:53;;;;;;;26.58;5.50;;;;;;;;;;4973092;28;20472;-60
2023/11/22 16:40:10;;;;;;;16.35;4.43;;;;;;;;;;4972267;28;20053;-60
2023/11/22 16:43:04;;;;;;;23.30;5.57;;;;;;;;;;4972861;28;20120;-57
2023/11/22 16:45:57;;;;;;;23.13;5.53;;;;;;;;;;4977837;28;20086;-58
2023/11/22 16:48:45;;;;;;;23.95;4.97;;;;;;;;;;4975523;28;20050;-58